Hovedside
METAR-TAF:

METAR-TAF

Lufthavner :

Ivalo lufthavn

Ivalo, Finland

breddegrad: 68-37N, lengdegrad: 027-25E, høyde over havet: 147 m

Gjeldene værobservasjon

Denne rapporten ble laget for 27 minutter siden, klokken 03:50 UTC
Vind 5 kt fra Vest-sørvest
Temperatur -7°C
Luftfuktighet 86%
Trykk 993 hPa
Sikt 10 km eller mer
ingen skyer under 1500 m og ingen bygeskyer

METAR: EFIV 240350Z AUTO 24005KT CAVOK M07/M09 Q0993

Tid: 07:17 (04:17 UTC)

Varsel

Denne rapporten ble laget for 19 timer og 52 minutter siden, klokken 08:25 UTC
Varsel gyldig fra 23. klokken 09 UTC til 23. klokken 11 UTC
Vind 5 kt fra Sørvest
Sikt 10 km eller mer
ingen skyer under 1500 m og ingen bygeskyer

TAF: EFIV 230825Z 2309/2311 22005KT CAVOK

Værobservasjoner og værvarsel for over 4000 flyplasser (METAR- og TAF-rapporter).

Tilgjengelige stasjoner er representert av de røde og gule prikkene på kartet.

Hold musepekeren over prikken for å se navnet på stasjonen.

Klikk så for å se værobservasjoner og -varsler.

For å forandre kartet kan du klikke på den grønne knappen med svart kryss for å zoome inn, på den grønne knappen med strek for å zoome ut, eller på de grønne pilene for å se tilstøtende kart.


METAR-TAF: